createdAt,value
2023-05-10T00:01:22.492Z,35.82
2023-05-10T00:03:50.506Z,35.87
2023-05-10T00:06:18.911Z,35.57
2023-05-10T00:08:47.517Z,35.74
2023-05-10T00:11:15.410Z,35.83
2023-05-10T00:13:43.204Z,35.99
2023-05-10T00:16:11.128Z,36.16
2023-05-10T00:18:40.452Z,36.18
2023-05-10T00:21:08.363Z,36.46
2023-05-10T00:23:36.379Z,36.16
2023-05-10T00:26:04.349Z,36.06
2023-05-10T00:28:32.379Z,36.19
2023-05-10T00:31:00.222Z,36.15
2023-05-10T00:33:28.074Z,36.41
2023-05-10T00:35:57.375Z,36.44
2023-05-10T00:38:25.617Z,36.77
2023-05-10T00:40:53.652Z,35.99
2023-05-10T00:43:21.561Z,36.25
2023-05-10T00:45:49.491Z,36.23
2023-05-10T00:48:17.461Z,35.92
2023-05-10T00:50:45.749Z,36.42
2023-05-10T00:53:15.158Z,36.44
2023-05-10T00:55:43.568Z,36.42
2023-05-10T00:58:11.409Z,36.53
2023-05-10T01:00:40.063Z,36.27
2023-05-10T01:03:08.062Z,35.93
2023-05-10T01:05:36.124Z,36.52
2023-05-10T01:08:04.701Z,36.01
2023-05-10T01:10:34.094Z,36.42
2023-05-10T01:13:02.311Z,35.73
2023-05-10T01:15:30.236Z,35.93
2023-05-10T01:17:58.578Z,36.32
2023-05-10T01:20:27.386Z,35.77
2023-05-10T01:23:16.989Z,36.27
2023-05-10T01:26:14.080Z,35.95
2023-05-10T01:29:03.271Z,35.85
2023-05-10T01:31:45.140Z,35.92
2023-05-10T01:34:20.101Z,36.58
2023-05-10T01:36:53.262Z,36.86
2023-05-10T01:39:27.789Z,36.52
2023-05-10T01:42:03.252Z,36.42
2023-05-10T01:44:37.177Z,36.56
2023-05-10T01:47:09.769Z,36.93
2023-05-10T01:49:44.039Z,37.25
2023-05-10T01:52:14.609Z,36.44
2023-05-10T01:54:48.547Z,36.80
2023-05-10T01:57:18.752Z,37.10
2023-05-10T01:59:50.248Z,37.37
2023-05-10T02:02:21.031Z,37.18
2023-05-10T02:04:52.786Z,37.61
2023-05-10T02:07:22.270Z,37.29
2023-05-10T02:09:50.413Z,37.63
2023-05-10T02:12:20.125Z,37.72
2023-05-10T02:14:49.918Z,37.30
2023-05-10T02:17:18.887Z,37.60
2023-05-10T02:19:48.805Z,38.07
2023-05-10T02:22:20.512Z,38.40
2023-05-10T02:24:49.770Z,38.22
2023-05-10T02:27:19.349Z,38.49
2023-05-10T02:29:48.777Z,38.46
2023-05-10T02:32:18.774Z,39.07
2023-05-10T02:34:52.886Z,38.95
2023-05-10T02:37:23.694Z,39.18
2023-05-10T02:39:54.213Z,39.17
2023-05-10T02:42:27.436Z,39.25
2023-05-10T02:44:58.761Z,39.20
2023-05-10T02:47:26.791Z,39.17
2023-05-10T02:49:54.614Z,39.50
2023-05-10T02:52:28.487Z,39.05
2023-05-10T02:55:00.566Z,40.18
2023-05-10T02:57:32.352Z,39.15
2023-05-10T03:00:01.248Z,39.00
2023-05-10T03:02:29.224Z,39.78
2023-05-10T03:04:57.237Z,39.43
2023-05-10T03:07:26.809Z,39.86
2023-05-10T03:09:54.966Z,40.04
2023-05-10T03:12:33.710Z,40.31
2023-05-10T03:15:09.054Z,40.39
2023-05-10T03:17:43.227Z,40.58
2023-05-10T03:20:13.360Z,40.18
2023-05-10T03:22:49.233Z,40.56
2023-05-10T03:25:19.005Z,40.41
2023-05-10T03:27:48.113Z,40.15
2023-05-10T03:30:16.748Z,41.11
2023-05-10T03:32:44.789Z,40.43
2023-05-10T03:35:14.253Z,40.80
2023-05-10T03:37:43.520Z,39.82
2023-05-10T03:40:11.692Z,40.62
2023-05-10T03:42:39.517Z,40.28
2023-05-10T03:45:08.763Z,40.46
2023-05-10T03:47:36.620Z,40.28
2023-05-10T03:50:05.020Z,39.92
2023-05-10T03:52:32.958Z,40.13
2023-05-10T03:55:04.065Z,40.29
2023-05-10T03:57:33.312Z,39.90
2023-05-10T04:00:01.498Z,40.54
2023-05-10T04:02:31.106Z,40.35
2023-05-10T04:04:59.272Z,39.96
2023-05-10T04:07:27.112Z,40.39
2023-05-10T04:09:55.011Z,40.04
2023-05-10T04:12:24.288Z,40.37
2023-05-10T04:14:52.202Z,39.77
2023-05-10T04:17:20.278Z,40.40
2023-05-10T04:19:48.221Z,39.98
2023-05-10T04:22:16.111Z,39.49
2023-05-10T04:24:43.910Z,40.22
2023-05-10T04:27:12.594Z,39.71
2023-05-10T04:29:43.061Z,40.41
2023-05-10T04:32:11.421Z,39.34
2023-05-10T04:34:39.331Z,39.82
2023-05-10T04:37:08.518Z,39.36
2023-05-10T04:39:36.521Z,40.33
2023-05-10T04:42:06.738Z,39.88
2023-05-10T04:44:34.645Z,40.10
2023-05-10T04:47:04.336Z,39.77
2023-05-10T04:49:32.416Z,39.11
2023-05-10T04:52:00.411Z,38.90
2023-05-10T04:54:28.269Z,38.79
2023-05-10T04:56:56.158Z,38.39
2023-05-10T04:59:24.139Z,38.14
2023-05-10T05:01:52.115Z,38.06
2023-05-10T05:04:21.327Z,36.97
2023-05-10T05:06:49.874Z,36.18
2023-05-10T05:09:18.969Z,34.84
2023-05-10T05:11:46.876Z,33.03
2023-05-10T05:14:14.713Z,32.38
2023-05-10T05:16:42.637Z,32.36
2023-05-10T05:19:10.590Z,32.25
2023-05-10T05:21:40.039Z,32.40
2023-05-10T05:24:08.809Z,32.52
2023-05-10T05:26:36.852Z,33.19
2023-05-10T05:29:04.809Z,33.40
2023-05-10T05:31:32.831Z,33.62
2023-05-10T05:34:00.779Z,33.39
2023-05-10T05:36:28.584Z,33.50
2023-05-10T05:38:58.188Z,33.72
2023-05-10T05:41:26.272Z,33.93
2023-05-10T05:43:54.102Z,33.19
2023-05-10T05:46:22.053Z,33.30
2023-05-10T05:48:49.945Z,32.71
2023-05-10T05:51:18.194Z,32.84
2023-05-10T05:53:46.304Z,32.34
2023-05-10T05:56:15.682Z,32.61
2023-05-10T05:58:43.521Z,32.42
2023-05-10T06:01:11.520Z,32.46
2023-05-10T06:03:39.619Z,32.29
2023-05-10T06:06:07.884Z,32.64
2023-05-10T06:08:35.900Z,32.69
2023-05-10T06:11:05.304Z,32.59
2023-05-10T06:13:36.291Z,32.42
2023-05-10T06:16:04.656Z,32.26
2023-05-10T06:18:32.634Z,31.79
2023-05-10T06:21:00.837Z,31.28
2023-05-10T06:23:28.861Z,31.33
2023-05-10T06:25:56.741Z,31.02
2023-05-10T06:28:24.638Z,31.32
2023-05-10T06:30:54.461Z,30.97
2023-05-10T06:33:22.407Z,31.05
2023-05-10T06:35:50.466Z,30.98
2023-05-10T06:38:18.463Z,30.50
2023-05-10T06:40:46.485Z,30.86
2023-05-10T06:43:14.444Z,30.52
2023-05-10T06:45:43.040Z,30.35
2023-05-10T06:48:12.682Z,30.56
2023-05-10T06:50:40.695Z,30.72
2023-05-10T06:53:08.620Z,31.02
2023-05-10T06:55:36.461Z,31.10
2023-05-10T06:58:04.337Z,30.19
2023-05-10T07:00:32.231Z,30.18
2023-05-10T07:03:00.523Z,29.05
2023-05-10T07:05:30.504Z,28.76
2023-05-10T07:07:58.542Z,28.77
2023-05-10T07:10:26.467Z,28.94
2023-05-10T07:12:57.084Z,28.63
2023-05-10T07:15:25.223Z,27.86
2023-05-10T07:17:53.787Z,26.79
2023-05-10T07:20:21.732Z,26.36
2023-05-10T07:22:51.142Z,26.92
2023-05-10T07:25:19.565Z,26.36
2023-05-10T07:27:49.669Z,25.30
2023-05-10T07:30:20.861Z,25.35
2023-05-10T07:32:48.890Z,24.95
2023-05-10T07:35:19.491Z,25.26
2023-05-10T07:37:47.483Z,25.45
2023-05-10T07:40:17.274Z,25.34
2023-05-10T07:42:46.727Z,25.01
2023-05-10T07:45:15.679Z,24.67
2023-05-10T07:47:43.815Z,24.64
2023-05-10T07:50:12.052Z,23.65
2023-05-10T07:52:39.871Z,23.21
2023-05-10T07:55:08.973Z,22.16
2023-05-10T07:57:38.533Z,22.00
2023-05-10T08:00:07.436Z,21.39
2023-05-10T08:02:36.305Z,21.82
2023-05-10T08:05:04.842Z,21.87
2023-05-10T08:07:32.815Z,21.97
2023-05-10T08:10:00.665Z,21.25
2023-05-10T08:12:28.530Z,21.00
2023-05-10T08:14:58.093Z,20.29
2023-05-10T08:17:26.164Z,19.35
2023-05-10T08:19:55.116Z,19.29
2023-05-10T08:22:22.988Z,19.54
2023-05-10T08:24:52.086Z,21.75
2023-05-10T08:27:19.953Z,19.72
2023-05-10T08:29:50.334Z,20.09
2023-05-10T08:32:19.928Z,20.35
2023-05-10T08:34:47.878Z,20.92
2023-05-10T08:37:15.959Z,20.47
2023-05-10T08:39:44.346Z,20.44
2023-05-10T08:42:13.320Z,20.27
2023-05-10T08:44:41.483Z,20.58
2023-05-10T08:47:11.217Z,21.51
2023-05-10T08:49:41.744Z,21.40
2023-05-10T08:52:10.247Z,20.62
2023-05-10T08:54:38.879Z,20.72
2023-05-10T08:57:06.878Z,21.01
2023-05-10T08:59:35.017Z,21.09
2023-05-10T09:02:03.637Z,21.31
2023-05-10T09:04:31.987Z,21.62
2023-05-10T09:07:02.207Z,21.64
2023-05-10T09:09:31.031Z,20.79
2023-05-10T09:11:59.315Z,21.17
2023-05-10T09:14:27.853Z,21.13
2023-05-10T09:16:57.164Z,21.06
2023-05-10T09:19:25.022Z,20.37
2023-05-10T09:21:52.990Z,19.31
2023-05-10T09:24:27.639Z,18.20
2023-05-10T09:26:55.522Z,17.94
2023-05-10T09:29:23.398Z,16.38
2023-05-10T09:31:53.529Z,14.61
2023-05-10T09:34:22.836Z,13.79
2023-05-10T09:36:55.419Z,13.08
2023-05-10T09:39:33.003Z,13.18
2023-05-10T09:42:01.840Z,13.04
2023-05-10T09:44:29.641Z,12.74
2023-05-10T09:46:57.557Z,11.86
2023-05-10T09:49:25.500Z,11.71
2023-05-10T09:52:04.539Z,10.40
2023-05-10T09:54:34.217Z,10.54
2023-05-10T09:57:02.357Z,10.66
2023-05-10T09:59:31.410Z,10.54
2023-05-10T10:02:00.390Z,11.18
2023-05-10T10:04:28.959Z,10.71
2023-05-10T10:07:04.576Z,10.12
2023-05-10T10:09:34.606Z,9.55
2023-05-10T10:12:03.037Z,8.69
2023-05-10T10:14:31.371Z,9.09
2023-05-10T10:19:35.350Z,10.23
2023-05-10T10:22:03.849Z,9.63
2023-05-10T10:24:33.081Z,9.24
2023-05-10T10:27:09.853Z,9.91
2023-05-10T10:29:44.128Z,10.82
2023-05-10T10:32:21.819Z,11.21
2023-05-10T10:34:50.304Z,10.24
2023-05-10T10:37:18.768Z,10.97
2023-05-10T10:39:50.706Z,10.27
2023-05-10T10:42:50.949Z,9.72
2023-05-10T10:45:19.171Z,10.34
2023-05-10T10:47:47.499Z,10.79
2023-05-10T10:50:17.128Z,10.29
2023-05-10T10:52:45.733Z,10.00
2023-05-10T10:55:18.181Z,12.01
2023-05-10T10:57:48.408Z,11.91
2023-05-10T11:00:28.642Z,11.86
2023-05-10T11:02:59.489Z,12.00
2023-05-10T11:05:48.663Z,11.62
2023-05-10T11:08:27.876Z,10.90
2023-05-10T11:11:08.143Z,11.96
2023-05-10T11:13:39.648Z,11.65
2023-05-10T11:16:19.053Z,11.14
2023-05-10T11:19:00.866Z,11.90
2023-05-10T11:21:28.801Z,11.64
2023-05-10T11:23:58.490Z,12.68
2023-05-10T11:26:32.169Z,13.96
2023-05-10T11:29:01.843Z,14.50
2023-05-10T11:31:30.608Z,15.37
2023-05-10T11:34:00.027Z,15.10
2023-05-10T11:36:29.828Z,15.53
2023-05-10T11:38:59.035Z,15.97
2023-05-10T11:41:32.657Z,16.74
2023-05-10T11:44:01.101Z,17.15
2023-05-10T11:46:30.032Z,17.99
2023-05-10T11:49:02.938Z,18.25
2023-05-10T11:51:31.271Z,18.12
2023-05-10T11:53:59.234Z,18.53
2023-05-10T11:56:28.561Z,18.50
2023-05-10T11:58:58.170Z,19.71
2023-05-10T12:01:27.079Z,19.72
2023-05-10T12:03:59.161Z,19.68
2023-05-10T12:06:29.388Z,19.63
2023-05-10T12:08:57.387Z,19.67
2023-05-10T12:11:29.153Z,20.29
2023-05-10T12:13:58.277Z,20.62
2023-05-10T12:16:27.451Z,20.74
2023-05-10T12:19:00.306Z,20.57
2023-05-10T12:21:31.487Z,21.31
2023-05-10T12:24:03.164Z,21.36
2023-05-10T12:26:32.459Z,21.62
2023-05-10T12:29:14.715Z,20.82
2023-05-10T12:31:55.943Z,20.67
2023-05-10T12:34:28.276Z,21.49
2023-05-10T12:36:56.927Z,21.18
2023-05-10T12:39:25.415Z,21.89
2023-05-10T12:41:54.888Z,20.87
2023-05-10T12:44:22.888Z,20.70
2023-05-10T12:46:50.831Z,20.75
2023-05-10T12:49:20.059Z,21.10
2023-05-10T12:51:47.827Z,20.55
2023-05-10T12:54:15.699Z,21.18
2023-05-10T12:56:43.823Z,21.80
2023-05-10T12:59:13.133Z,21.34
2023-05-10T13:01:41.489Z,20.77
2023-05-10T13:04:09.504Z,20.93
2023-05-10T13:06:38.225Z,21.12
2023-05-10T13:09:06.327Z,21.24
2023-05-10T13:11:34.544Z,21.25
2023-05-10T13:14:04.241Z,20.94
2023-05-10T13:16:38.046Z,20.76
2023-05-10T13:19:10.207Z,20.90
2023-05-10T13:21:38.460Z,20.71
2023-05-10T13:24:06.860Z,20.79
2023-05-10T13:26:35.902Z,21.20
2023-05-10T13:29:10.213Z,20.95
2023-05-10T13:31:39.812Z,20.58
2023-05-10T13:34:09.044Z,21.06
2023-05-10T13:36:37.144Z,21.05
2023-05-10T13:39:06.422Z,21.42
2023-05-10T13:41:35.126Z,20.90
2023-05-10T13:44:03.052Z,21.15
2023-05-10T13:46:31.431Z,21.09
2023-05-10T13:49:00.717Z,21.62
2023-05-10T13:51:28.681Z,21.51
2023-05-10T13:53:57.102Z,22.42
2023-05-10T13:56:25.544Z,21.91
2023-05-10T13:58:53.705Z,22.17
2023-05-10T14:01:21.743Z,22.56
2023-05-10T14:03:50.173Z,21.37
2023-05-10T14:06:20.216Z,21.45
2023-05-10T14:08:48.397Z,21.39
2023-05-10T14:11:17.378Z,21.24
2023-05-10T14:13:45.559Z,21.71
2023-05-10T14:16:15.786Z,22.98
2023-05-10T14:18:44.167Z,23.84
2023-05-10T14:21:12.558Z,22.29
2023-05-10T14:23:42.004Z,22.34
2023-05-10T14:26:11.062Z,22.93
2023-05-10T14:28:40.334Z,23.63
2023-05-10T14:31:08.947Z,23.41
2023-05-10T14:33:40.025Z,22.29
2023-05-10T14:36:09.797Z,22.25
2023-05-10T14:38:38.045Z,23.29
2023-05-10T14:41:09.041Z,22.62
2023-05-10T14:43:38.442Z,22.27
2023-05-10T14:46:06.620Z,23.25
2023-05-10T14:48:34.751Z,22.12
2023-05-10T14:51:03.499Z,23.85
2023-05-10T14:53:31.822Z,22.87
2023-05-10T14:56:01.242Z,24.38
2023-05-10T14:58:33.861Z,23.18
2023-05-10T15:01:04.439Z,23.15
2023-05-10T15:03:33.124Z,22.73
2023-05-10T15:06:01.872Z,23.43
2023-05-10T15:08:33.469Z,22.92
2023-05-10T15:11:01.647Z,22.81
2023-05-10T15:13:31.788Z,23.11
2023-05-10T15:16:00.192Z,23.61
2023-05-10T15:18:28.349Z,23.20
2023-05-10T15:20:56.409Z,23.34
2023-05-10T15:23:24.559Z,23.43
2023-05-10T15:25:56.758Z,24.00
2023-05-10T15:28:24.944Z,24.05
2023-05-10T15:30:54.779Z,24.63
2023-05-10T15:33:23.730Z,24.34
2023-05-10T15:35:52.401Z,25.75
2023-05-10T15:38:20.830Z,25.28
2023-05-10T15:40:48.816Z,23.87
2023-05-10T15:43:17.379Z,24.04
2023-05-10T15:45:46.482Z,24.62
2023-05-10T15:48:17.678Z,23.94
2023-05-10T15:50:46.004Z,23.86
2023-05-10T15:53:14.749Z,24.79
2023-05-10T15:55:42.760Z,23.96
2023-05-10T15:58:11.716Z,25.30
2023-05-10T16:00:41.107Z,24.65
2023-05-10T16:03:09.641Z,24.11
2023-05-10T16:05:39.905Z,24.95
2023-05-10T16:08:09.921Z,24.99
2023-05-10T16:10:38.429Z,23.61
2023-05-10T16:13:09.688Z,24.44
2023-05-10T16:15:38.093Z,23.32
2023-05-10T16:18:09.168Z,22.95
2023-05-10T16:20:38.865Z,23.30
2023-05-10T16:23:08.349Z,23.59
2023-05-10T16:25:36.773Z,23.47
2023-05-10T16:28:04.999Z,23.35
2023-05-10T16:30:34.595Z,23.18
2023-05-10T16:33:08.763Z,23.52
2023-05-10T16:35:38.239Z,22.72
2023-05-10T16:38:06.812Z,23.11
2023-05-10T16:40:36.147Z,22.97
2023-05-10T16:43:04.295Z,23.05
2023-05-10T16:45:33.935Z,22.54
2023-05-10T16:48:02.735Z,22.71
2023-05-10T16:50:31.529Z,21.98
2023-05-10T16:53:01.401Z,23.38
2023-05-10T16:55:30.077Z,23.19
2023-05-10T16:58:01.053Z,22.91
2023-05-10T17:00:30.360Z,23.70
2023-05-10T17:02:58.479Z,23.44
2023-05-10T17:05:28.930Z,23.29
2023-05-10T17:07:57.402Z,23.45
2023-05-10T17:10:30.091Z,22.81
2023-05-10T17:13:01.925Z,23.72
2023-05-10T17:15:30.909Z,24.31
2023-05-10T17:18:00.232Z,23.33
2023-05-10T17:20:28.922Z,24.05
2023-05-10T17:22:57.053Z,23.93
2023-05-10T17:25:31.162Z,24.16
2023-05-10T17:27:59.673Z,24.98
2023-05-10T17:30:32.884Z,25.02
2023-05-10T17:33:04.408Z,25.39
2023-05-10T17:35:35.847Z,25.53
2023-05-10T17:38:04.189Z,25.49
2023-05-10T17:40:43.901Z,25.45
2023-05-10T17:43:12.701Z,25.59
2023-05-10T17:45:41.444Z,26.19
2023-05-10T17:48:12.125Z,25.18
2023-05-10T17:50:43.403Z,26.03
2023-05-10T17:53:12.383Z,25.95
2023-05-10T17:55:48.380Z,26.60
2023-05-10T17:58:18.281Z,25.90
2023-05-10T18:00:46.600Z,25.38
2023-05-10T18:03:15.933Z,26.57
2023-05-10T18:05:44.793Z,27.01
2023-05-10T18:08:23.053Z,26.87
2023-05-10T18:10:53.503Z,26.81
2023-05-10T18:13:22.664Z,26.88
2023-05-10T18:15:51.185Z,27.21
2023-05-10T18:18:19.788Z,27.45
2023-05-10T18:20:49.589Z,27.56
2023-05-10T18:23:18.020Z,27.17
2023-05-10T18:25:50.050Z,27.30
2023-05-10T18:28:19.861Z,27.85
2023-05-10T18:30:47.947Z,27.79
2023-05-10T18:33:16.726Z,27.52
2023-05-10T18:35:47.501Z,27.67
2023-05-10T18:38:16.493Z,28.06
2023-05-10T18:40:45.287Z,28.50
2023-05-10T18:43:15.230Z,28.18
2023-05-10T18:45:45.153Z,28.34
2023-05-10T18:48:14.125Z,28.43
2023-05-10T18:50:45.973Z,28.33
2023-05-10T18:53:15.071Z,28.24
2023-05-10T18:55:44.827Z,28.60
2023-05-10T18:58:18.068Z,28.43
2023-05-10T19:00:47.885Z,28.98
2023-05-10T19:03:15.949Z,28.76
2023-05-10T19:05:44.278Z,28.99
2023-05-10T19:08:15.436Z,29.24
2023-05-10T19:10:43.517Z,29.29
2023-05-10T19:13:12.380Z,29.75
2023-05-10T19:15:41.873Z,29.39
2023-05-10T19:18:11.786Z,29.83
2023-05-10T19:20:42.344Z,29.90
2023-05-10T19:23:10.897Z,29.85
2023-05-10T19:25:39.522Z,30.21
2023-05-10T19:28:11.524Z,29.83
2023-05-10T19:30:40.284Z,30.17
2023-05-10T19:33:10.371Z,29.85
2023-05-10T19:35:39.725Z,29.63
2023-05-10T19:38:07.661Z,30.03
2023-05-10T19:40:37.984Z,30.17
2023-05-10T19:43:05.969Z,30.29
2023-05-10T19:45:36.434Z,29.61
2023-05-10T19:48:04.819Z,30.36
2023-05-10T19:50:32.708Z,30.12
2023-05-10T19:53:01.963Z,30.72
2023-05-10T19:55:31.504Z,30.21
2023-05-10T19:58:00.903Z,30.50
2023-05-10T20:00:29.142Z,29.98
2023-05-10T20:02:57.391Z,29.96
2023-05-10T20:05:25.461Z,30.53
2023-05-10T20:07:53.458Z,29.71
2023-05-10T20:10:24.646Z,30.19
2023-05-10T20:12:54.340Z,30.71
2023-05-10T20:15:24.128Z,30.63
2023-05-10T20:17:53.262Z,30.22
2023-05-10T20:20:21.881Z,30.19
2023-05-10T20:22:50.031Z,31.14
2023-05-10T20:25:19.352Z,30.87
2023-05-10T20:27:50.813Z,30.85
2023-05-10T20:30:19.635Z,30.96
2023-05-10T20:32:47.898Z,31.18
2023-05-10T20:35:15.845Z,30.98
2023-05-10T20:37:43.744Z,31.25
2023-05-10T20:40:12.179Z,32.35
2023-05-10T20:42:41.152Z,32.27
2023-05-10T20:45:11.738Z,31.67
2023-05-10T20:47:39.555Z,32.04
2023-05-10T20:50:08.511Z,32.90
2023-05-10T20:52:36.373Z,32.18
2023-05-10T20:55:04.654Z,32.96
2023-05-10T20:57:32.503Z,32.76
2023-05-10T21:00:00.573Z,32.76
2023-05-10T21:02:29.956Z,32.72
2023-05-10T21:04:58.298Z,32.95
2023-05-10T21:07:26.468Z,31.82
2023-05-10T21:09:54.487Z,32.75
2023-05-10T21:12:22.365Z,32.32
2023-05-10T21:14:50.429Z,31.90
2023-05-10T21:17:20.117Z,33.34
2023-05-10T21:19:50.401Z,33.24
2023-05-10T21:22:18.354Z,32.16
2023-05-10T21:24:46.280Z,32.47
2023-05-10T21:27:14.132Z,33.79
2023-05-10T21:29:42.073Z,33.02
2023-05-10T21:32:10.014Z,32.89
2023-05-10T21:34:37.892Z,33.42
2023-05-10T21:37:07.338Z,33.37
2023-05-10T21:39:35.267Z,33.48
2023-05-10T21:42:03.776Z,34.44
2023-05-10T21:44:32.192Z,34.24
2023-05-10T21:47:00.060Z,34.18
2023-05-10T21:49:28.181Z,34.55
2023-05-10T21:51:56.074Z,34.31
2023-05-10T21:54:25.385Z,33.29
2023-05-10T21:56:53.293Z,34.69
2023-05-10T21:59:21.766Z,34.54
2023-05-10T22:01:49.657Z,33.58
2023-05-10T22:04:17.594Z,33.42
2023-05-10T22:06:45.414Z,34.45
2023-05-10T22:09:13.297Z,34.78
2023-05-10T22:11:42.503Z,33.72
2023-05-10T22:14:10.467Z,33.69
2023-05-10T22:16:38.319Z,34.37
2023-05-10T22:19:06.348Z,34.66
2023-05-10T22:21:34.362Z,34.02
2023-05-10T22:24:02.179Z,34.61
2023-05-10T22:26:30.323Z,34.74
2023-05-10T22:28:59.612Z,35.18
2023-05-10T22:31:28.005Z,35.27
2023-05-10T22:33:55.950Z,35.34
2023-05-10T22:36:23.816Z,35.25
2023-05-10T22:38:51.694Z,34.56
2023-05-10T22:41:19.573Z,34.57
2023-05-10T22:43:47.445Z,35.94
2023-05-10T22:46:16.761Z,35.83
2023-05-10T22:48:44.820Z,35.95
2023-05-10T22:51:12.690Z,35.75
2023-05-10T22:53:40.704Z,35.09
2023-05-10T22:56:08.744Z,35.46
2023-05-10T22:58:36.924Z,35.03
2023-05-10T23:01:05.141Z,35.29
2023-05-10T23:03:34.376Z,33.85
2023-05-10T23:06:02.254Z,34.94
2023-05-10T23:08:30.090Z,35.59
2023-05-10T23:10:58.056Z,35.12
2023-05-10T23:13:25.958Z,35.70
2023-05-10T23:15:53.933Z,33.81
2023-05-10T23:18:23.172Z,35.29
2023-05-10T23:20:55.517Z,34.54
2023-05-10T23:23:23.864Z,34.85
2023-05-10T23:25:52.156Z,33.84
2023-05-10T23:28:20.034Z,33.71
2023-05-10T23:30:47.926Z,34.71
2023-05-10T23:33:16.012Z,34.61
2023-05-10T23:35:43.893Z,34.37
2023-05-10T23:38:13.196Z,34.71
2023-05-10T23:40:41.243Z,33.97
2023-05-10T23:43:09.253Z,34.47
2023-05-10T23:45:37.137Z,33.39
2023-05-10T23:48:05.383Z,33.58
2023-05-10T23:50:33.450Z,34.66
2023-05-10T23:53:02.103Z,34.75
2023-05-10T23:55:31.404Z,34.65
2023-05-10T23:57:59.280Z,33.61
